Time;durP1;ratioP1;P1;durP2;ratioP2;P2;SDS_P1;SDS_P2;PMS_P1;PMS_P2;Temp;Humidity;BMP_temperature;BMP_pressure;BME280_temperature;BME280_humidity;BME280_pressure;Samples;Min_cycle;Max_cycle;Signal;HPM_P1;HPM_P2
2022/05/15 00:02:35;;;;;;;24.20;5.32;;;13.90;99.90;;;;;;4974930;28;20042;-48
2022/05/15 00:05:02;;;;;;;19.60;5.20;;;13.90;99.90;;;;;;4975631;28;20042;-47
2022/05/15 00:07:27;;;;;;;26.00;5.40;;;13.90;99.90;;;;;;4958239;28;20034;-50
2022/05/15 00:09:53;;;;;;;19.02;5.22;;;13.90;99.90;;;;;;4975068;28;20061;-46
2022/05/15 00:12:20;;;;;;;24.67;5.35;;;13.80;99.90;;;;;;4975581;28;20106;-46
2022/05/15 00:14:46;;;;;;;19.15;5.50;;;13.80;99.90;;;;;;4975444;28;20070;-46
2022/05/15 00:17:13;;;;;;;21.60;5.80;;;13.80;99.90;;;;;;4975108;28;20061;-46
2022/05/15 00:19:39;;;;;;;27.98;6.63;;;13.80;99.90;;;;;;4975411;28;20368;-45
2022/05/15 00:22:06;;;;;;;28.45;5.50;;;13.80;99.90;;;;;;4974867;28;20112;-46
2022/05/15 00:24:33;;;;;;;24.38;5.63;;;13.80;99.90;;;;;;4975320;28;20045;-46
2022/05/15 00:26:59;;;;;;;21.65;5.22;;;13.80;99.90;;;;;;4974936;28;20043;-47
2022/05/15 00:29:25;;;;;;;21.55;5.53;;;13.60;99.90;;;;;;4974998;28;20038;-46
2022/05/15 00:31:51;;;;;;;26.55;5.50;;;13.70;99.90;;;;;;4975146;28;20121;-47
2022/05/15 00:34:16;;;;;;;22.67;5.22;;;13.70;99.90;;;;;;4974928;28;20118;-45
2022/05/15 00:36:42;;;;;;;19.95;4.68;;;13.60;99.90;;;;;;4974213;28;20085;-47
2022/05/15 00:39:09;;;;;;;24.38;5.28;;;13.40;99.90;;;;;;4974889;28;20070;-45
2022/05/15 00:41:37;;;;;;;24.70;5.07;;;13.40;99.90;;;;;;4974635;28;20035;-45
2022/05/15 00:44:03;;;;;;;23.25;5.15;;;13.30;99.90;;;;;;4974891;28;20046;-46
2022/05/15 00:46:32;;;;;;;24.15;5.60;;;13.40;99.90;;;;;;4974533;28;20073;-47
2022/05/15 00:49:00;;;;;;;23.88;5.85;;;13.50;99.90;;;;;;4974870;28;20123;-46
2022/05/15 00:51:43;;;;;;;26.48;5.53;;;13.40;99.90;;;;;;4973905;28;20510;-46
2022/05/15 00:54:20;;;;;;;21.53;5.57;;;13.40;99.90;;;;;;4974883;28;20054;-46
2022/05/15 00:56:54;;;;;;;25.95;5.30;;;13.20;99.90;;;;;;4974398;28;20043;-49
2022/05/15 00:59:23;;;;;;;23.27;5.57;;;13.30;99.90;;;;;;4957257;28;20081;-48
2022/05/15 01:01:48;;;;;;;21.17;5.07;;;13.30;99.90;;;;;;4974607;28;20129;-48
2022/05/15 01:04:15;;;;;;;24.27;5.30;;;13.20;99.90;;;;;;4974360;28;20149;-47
2022/05/15 01:06:43;;;;;;;26.58;6.13;;;13.30;99.90;;;;;;4974309;28;20042;-44
2022/05/15 01:09:10;;;;;;;29.10;5.97;;;13.20;99.90;;;;;;4974182;28;20086;-48
2022/05/15 01:11:37;;;;;;;22.13;5.15;;;13.10;99.90;;;;;;4973943;28;20039;-44
2022/05/15 01:14:06;;;;;;;24.35;5.30;;;13.10;99.90;;;;;;4957073;28;20439;-46
2022/05/15 01:16:32;;;;;;;25.40;6.15;;;13.00;99.90;;;;;;4974482;28;20035;-47
2022/05/15 01:19:00;;;;;;;25.85;5.68;;;12.90;99.90;;;;;;4974258;28;20043;-48
2022/05/15 01:21:34;;;;;;;21.00;5.45;;;13.00;99.90;;;;;;4972915;28;20071;-46
2022/05/15 01:24:02;;;;;;;23.08;5.55;;;12.90;99.90;;;;;;4978861;28;20034;-47
2022/05/15 01:26:28;;;;;;;22.98;5.28;;;12.90;99.90;;;;;;4973631;28;20066;-45
2022/05/15 01:28:54;;;;;;;22.45;5.13;;;12.90;99.90;;;;;;4973285;28;20037;-47
2022/05/15 01:31:21;;;;;;;20.35;5.53;;;12.80;99.90;;;;;;4974091;28;20043;-45
2022/05/15 01:33:48;;;;;;;25.38;5.35;;;12.80;99.90;;;;;;4956076;28;20043;-47
2022/05/15 01:36:16;;;;;;;23.10;5.50;;;12.60;99.90;;;;;;4973960;28;20514;-45
2022/05/15 01:38:41;;;;;;;19.20;4.90;;;12.70;99.90;;;;;;4973525;28;20510;-48
2022/05/15 01:41:07;;;;;;;21.95;5.60;;;12.60;99.90;;;;;;4973880;28;20070;-47
2022/05/15 01:43:34;;;;;;;22.63;5.13;;;12.50;99.90;;;;;;4973483;28;20042;-46
2022/05/15 01:46:00;;;;;;;23.92;5.32;;;12.40;99.90;;;;;;4973603;28;20039;-49
2022/05/15 01:48:26;;;;;;;21.70;5.32;;;12.40;99.90;;;;;;4973612;28;20118;-46
2022/05/15 01:50:53;;;;;;;22.23;4.90;;;12.50;99.90;;;;;;4973067;28;20057;-47
2022/05/15 01:53:18;;;;;;;26.15;5.30;;;12.50;99.90;;;;;;4973524;28;20100;-48
2022/05/15 01:55:44;;;;;;;23.27;5.75;;;12.40;99.90;;;;;;4956038;28;20126;-48
2022/05/15 01:58:10;;;;;;;20.30;5.57;;;12.40;99.90;;;;;;4973950;28;20057;-49
2022/05/15 02:00:38;;;;;;;22.63;5.30;;;12.30;99.90;;;;;;4954800;28;20078;-49
2022/05/15 02:03:03;;;;;;;23.75;5.97;;;12.40;99.90;;;;;;4973427;28;20043;-48
2022/05/15 02:05:29;;;;;;;22.70;5.95;;;12.40;99.90;;;;;;4973409;28;20075;-47
2022/05/15 02:07:55;;;;;;;19.88;5.90;;;12.30;99.90;;;;;;4973204;28;20039;-46
2022/05/15 02:10:21;;;;;;;25.98;5.38;;;12.30;99.90;;;;;;4955776;28;20050;-46
2022/05/15 02:12:47;;;;;;;28.25;5.57;;;12.30;99.90;;;;;;4972242;28;20034;-47
2022/05/15 02:15:14;;;;;;;25.13;5.57;;;12.30;99.90;;;;;;4973230;28;20122;-46
2022/05/15 02:17:40;;;;;;;21.40;5.28;;;12.10;99.90;;;;;;4972873;28;20054;-47
2022/05/15 02:20:08;;;;;;;25.27;5.47;;;12.20;99.90;;;;;;4972616;28;20037;-47
2022/05/15 02:22:33;;;;;;;25.60;5.78;;;12.20;99.90;;;;;;4971530;28;20043;-46
2022/05/15 02:24:59;;;;;;;26.33;5.75;;;12.10;99.90;;;;;;4971816;28;20041;-47
2022/05/15 02:27:25;;;;;;;30.15;6.20;;;12.00;99.90;;;;;;4972648;28;20483;-46
2022/05/15 02:29:50;;;;;;;24.10;6.18;;;12.00;99.90;;;;;;4972899;28;20060;-46
2022/05/15 02:32:16;;;;;;;24.30;6.00;;;12.00;99.90;;;;;;4972707;28;20517;-46
2022/05/15 02:34:42;;;;;;;20.45;5.65;;;11.90;99.90;;;;;;4972686;28;20057;-49
2022/05/15 02:37:07;;;;;;;19.52;5.53;;;11.80;99.90;;;;;;4972742;28;20491;-49
2022/05/15 02:39:33;;;;;;;29.40;6.05;;;11.90;99.90;;;;;;4972874;28;20121;-47
2022/05/15 02:42:01;;;;;;;24.92;6.07;;;11.80;99.90;;;;;;4973033;28;20039;-47
2022/05/15 02:44:28;;;;;;;22.60;5.43;;;11.80;99.90;;;;;;4972690;28;20047;-48
2022/05/15 02:46:54;;;;;;;22.95;5.70;;;11.70;99.90;;;;;;4955363;28;20522;-47
2022/05/15 02:52:05;;;;;;;;;;;11.70;99.90;;;;;;4972276;28;20510;-49
2022/05/15 02:54:31;;;;;;;19.77;5.22;;;11.70;99.90;;;;;;4955034;28;19927;-48
2022/05/15 02:56:57;;;;;;;19.60;5.18;;;11.60;99.90;;;;;;4972413;28;20073;-49
2022/05/15 02:59:23;;;;;;;22.45;5.82;;;11.60;99.90;;;;;;4954363;28;20078;-50
2022/05/15 03:01:49;;;;;;;26.38;6.20;;;11.60;99.90;;;;;;4972249;28;20525;-48
2022/05/15 03:04:15;;;;;;;29.05;4.90;;;11.60;99.90;;;;;;4972445;28;20054;-45
2022/05/15 03:06:40;;;;;;;27.42;6.03;;;11.60;99.90;;;;;;4972268;28;20408;-45
2022/05/15 03:09:06;;;;;;;27.05;6.32;;;11.50;99.90;;;;;;4972456;28;20050;-45
2022/05/15 03:11:32;;;;;;;20.13;5.80;;;11.40;99.90;;;;;;4972457;28;20049;-45
2022/05/15 03:13:58;;;;;;;30.08;6.15;;;11.40;99.90;;;;;;4971755;28;20128;-46
2022/05/15 03:16:28;;;;;;;18.98;6.03;;;11.40;99.90;;;;;;4972595;28;20410;-48
2022/05/15 03:18:54;;;;;;;22.85;5.93;;;11.50;99.90;;;;;;4972092;28;20479;-47
2022/05/15 03:21:29;;;;;;;26.73;5.65;;;11.40;99.90;;;;;;4971908;28;20035;-46
2022/05/15 03:23:59;;;;;;;20.67;5.90;;;11.30;99.90;;;;;;4972204;28;20031;-48
2022/05/15 03:26:27;;;;;;;26.00;5.80;;;11.20;99.90;;;;;;4971922;28;20035;-48
2022/05/15 03:28:53;;;;;;;27.13;5.60;;;11.40;99.90;;;;;;4971746;28;20055;-45
2022/05/15 03:31:19;;;;;;;15.93;5.00;;;11.40;99.90;;;;;;4972141;28;20035;-50
2022/05/15 03:33:46;;;;;;;20.73;6.88;;;11.20;99.90;;;;;;4971756;28;20039;-47
2022/05/15 03:36:11;;;;;;;21.40;6.22;;;11.20;99.90;;;;;;4954334;28;20038;-49
2022/05/15 03:38:42;;;;;;;21.23;5.82;;;11.30;99.90;;;;;;4971890;28;20058;-49
2022/05/15 03:41:08;;;;;;;25.48;5.93;;;11.00;99.90;;;;;;4972090;28;20582;-48
2022/05/15 03:43:34;;;;;;;20.98;5.63;;;11.00;99.90;;;;;;4953676;28;20134;-50
2022/05/15 03:46:01;;;;;;;26.52;6.07;;;11.10;99.90;;;;;;4971219;28;20051;-49
2022/05/15 03:48:27;;;;;;;24.05;6.30;;;11.10;99.90;;;;;;4971510;28;20077;-46
2022/05/15 03:50:53;;;;;;;21.23;5.78;;;11.20;99.90;;;;;;4970951;28;20142;-47
2022/05/15 03:53:18;;;;;;;23.05;6.18;;;11.10;99.90;;;;;;4971462;28;20472;-49
2022/05/15 03:55:44;;;;;;;24.58;5.68;;;11.00;99.90;;;;;;4971967;28;20035;-45
2022/05/15 03:58:10;;;;;;;21.98;5.80;;;11.00;99.90;;;;;;4971539;28;20399;-45
2022/05/15 04:00:36;;;;;;;26.70;6.60;;;11.10;99.90;;;;;;4971550;28;20035;-46
2022/05/15 04:03:02;;;;;;;24.23;6.03;;;11.00;99.90;;;;;;4971689;28;20503;-48
2022/05/15 04:05:28;;;;;;;22.13;6.10;;;10.90;99.90;;;;;;4971442;28;20504;-46
2022/05/15 04:07:56;;;;;;;22.67;6.05;;;10.90;99.90;;;;;;4971750;28;20426;-45
2022/05/15 04:10:25;;;;;;;24.27;6.93;;;10.80;99.90;;;;;;4971636;28;20121;-46
2022/05/15 04:12:51;;;;;;;23.35;6.75;;;10.90;99.90;;;;;;4971640;28;20054;-46
2022/05/15 04:15:17;;;;;;;22.92;6.03;;;10.90;99.90;;;;;;4971181;28;20458;-46
2022/05/15 04:17:45;;;;;;;20.65;5.75;;;10.90;99.90;;;;;;4953641;28;20046;-47
2022/05/15 04:20:13;;;;;;;20.10;6.13;;;10.70;99.90;;;;;;4970750;28;20382;-48
2022/05/15 04:22:39;;;;;;;20.63;6.22;;;10.70;99.90;;;;;;4971122;28;20475;-50
2022/05/15 04:25:05;;;;;;;22.75;5.28;;;10.80;99.90;;;;;;4971585;28;20055;-47
2022/05/15 04:27:31;;;;;;;24.83;6.68;;;10.80;99.90;;;;;;4970923;28;20038;-49
2022/05/15 04:29:57;;;;;;;21.85;6.40;;;10.70;99.90;;;;;;4970923;28;20140;-46
2022/05/15 04:32:22;;;;;;;21.52;6.35;;;10.80;99.90;;;;;;4971275;28;20550;-48
2022/05/15 04:34:48;;;;;;;23.40;6.68;;;10.70;99.90;;;;;;4971098;28;20051;-47
2022/05/15 04:37:14;;;;;;;24.33;6.53;;;10.90;99.90;;;;;;4971565;28;20041;-47
2022/05/15 04:39:39;;;;;;;26.00;6.53;;;10.90;99.90;;;;;;4971401;28;20042;-48
2022/05/15 04:42:06;;;;;;;19.17;6.22;;;11.00;99.90;;;;;;4971293;28;20414;-45
2022/05/15 04:44:31;;;;;;;20.88;6.43;;;11.00;99.90;;;;;;4971509;28;20039;-45
2022/05/15 04:46:57;;;;;;;26.35;6.75;;;11.00;99.90;;;;;;4973201;28;20537;-45
2022/05/15 04:49:23;;;;;;;25.05;6.97;;;11.10;99.90;;;;;;4974344;28;20047;-46
2022/05/15 04:51:48;;;;;;;22.13;7.07;;;11.00;99.90;;;;;;4974180;28;20113;-46
2022/05/15 04:54:14;;;;;;;28.02;7.03;;;11.10;99.90;;;;;;4974795;28;20043;-48
2022/05/15 04:56:40;;;;;;;18.10;5.65;;;11.10;99.90;;;;;;4975005;28;20038;-47
2022/05/15 04:59:05;;;;;;;21.73;6.65;;;11.10;99.90;;;;;;4973156;28;20078;-49
2022/05/15 05:01:31;;;;;;;17.33;6.00;;;11.10;99.90;;;;;;4973888;28;20089;-48
2022/05/15 05:03:57;;;;;;;20.45;6.00;;;11.20;99.90;;;;;;4956258;28;20081;-50
2022/05/15 05:06:24;;;;;;;25.20;6.95;;;11.20;99.90;;;;;;4974208;28;20042;-47
2022/05/15 05:08:51;;;;;;;26.05;6.43;;;11.20;99.90;;;;;;4974501;28;20491;-48
2022/05/15 05:11:17;;;;;;;25.98;6.13;;;11.20;99.90;;;;;;4974403;28;20039;-50
2022/05/15 05:13:43;;;;;;;23.02;6.53;;;11.30;99.90;;;;;;4973041;28;20078;-48
2022/05/15 05:16:09;;;;;;;20.58;6.22;;;11.30;99.90;;;;;;4956530;28;20077;-46
2022/05/15 05:18:35;;;;;;;25.85;6.50;;;11.40;99.90;;;;;;4956827;28;20039;-51
2022/05/15 05:21:01;;;;;;;23.73;6.50;;;11.40;99.90;;;;;;4973701;28;20054;-47
2022/05/15 05:23:27;;;;;;;23.92;6.40;;;11.40;99.90;;;;;;4974053;28;20039;-48
2022/05/15 05:25:52;;;;;;;27.27;6.78;;;11.40;99.90;;;;;;4974160;28;20053;-48
2022/05/15 05:28:18;;;;;;;22.08;6.43;;;11.50;99.90;;;;;;4974131;28;20042;-46
2022/05/15 05:30:44;;;;;;;23.73;6.60;;;11.60;99.90;;;;;;4973922;28;20126;-48
2022/05/15 05:33:10;;;;;;;24.10;6.13;;;11.60;99.90;;;;;;4974052;28;20097;-46
2022/05/15 05:35:37;;;;;;;22.15;5.80;;;11.60;99.90;;;;;;4973999;28;20070;-47
2022/05/15 05:38:03;;;;;;;19.42;5.90;;;11.70;99.90;;;;;;4973739;28;20064;-45
2022/05/15 05:40:29;;;;;;;22.00;5.93;;;11.70;99.90;;;;;;4974100;28;20105;-49
2022/05/15 05:42:55;;;;;;;24.85;5.65;;;11.80;99.90;;;;;;4973412;28;20038;-47
2022/05/15 05:45:22;;;;;;;27.23;6.30;;;11.90;99.90;;;;;;4972932;28;20101;-45
2022/05/15 05:47:49;;;;;;;23.92;6.10;;;11.90;99.90;;;;;;4973757;28;20042;-46
2022/05/15 05:50:16;;;;;;;21.17;5.72;;;11.90;99.90;;;;;;4956194;28;20069;-48
2022/05/15 05:52:42;;;;;;;20.73;5.70;;;12.00;99.90;;;;;;4973424;28;20061;-48
2022/05/15 05:55:11;;;;;;;25.73;6.03;;;12.00;99.90;;;;;;4973926;28;20085;-49
2022/05/15 05:57:38;;;;;;;25.38;6.50;;;12.10;99.90;;;;;;4955283;28;20043;-46
2022/05/15 06:00:11;;;;;;;23.83;6.13;;;12.20;99.90;;;;;;4973239;28;21051;-46
2022/05/15 06:02:36;;;;;;;21.50;6.07;;;12.20;99.90;;;;;;4973624;28;20069;-48
2022/05/15 06:05:03;;;;;;;21.23;6.18;;;12.40;99.90;;;;;;4973191;28;20043;-46
2022/05/15 06:07:30;;;;;;;23.48;6.03;;;12.40;99.90;;;;;;4973568;28;20034;-47
2022/05/15 06:09:56;;;;;;;20.42;4.93;;;12.40;99.90;;;;;;4973345;28;20487;-50
2022/05/15 06:12:24;;;;;;;23.55;5.95;;;12.50;99.90;;;;;;4973137;28;20042;-47
2022/05/15 06:14:51;;;;;;;28.13;6.55;;;12.60;99.90;;;;;;4973560;28;20054;-48
2022/05/15 06:17:25;;;;;;;23.38;6.20;;;12.70;99.90;;;;;;4973384;28;20422;-47
2022/05/15 06:19:51;;;;;;;19.65;5.68;;;12.70;99.90;;;;;;4973048;28;20494;-46
2022/05/15 06:22:17;;;;;;;21.02;5.72;;;12.80;99.90;;;;;;4972560;28;20045;-46
2022/05/15 06:24:43;;;;;;;20.60;5.68;;;12.90;99.90;;;;;;4973127;28;20043;-47
2022/05/15 06:27:10;;;;;;;21.67;5.88;;;12.90;99.90;;;;;;4972968;28;20041;-47
2022/05/15 06:29:40;;;;;;;18.00;5.32;;;13.00;99.90;;;;;;4972847;28;20043;-45
2022/05/15 06:32:07;;;;;;;19.95;5.53;;;13.10;99.90;;;;;;4972794;28;20454;-47
2022/05/15 06:34:33;;;;;;;18.98;5.80;;;13.10;99.90;;;;;;4971774;28;20499;-47
2022/05/15 06:36:59;;;;;;;17.90;5.20;;;13.20;99.90;;;;;;4972766;28;20071;-46
2022/05/15 06:39:24;;;;;;;25.95;6.18;;;13.20;99.90;;;;;;4955076;28;20066;-49
2022/05/15 06:41:50;;;;;;;19.60;5.38;;;13.40;99.90;;;;;;4972513;28;20483;-47
2022/05/15 06:44:17;;;;;;;19.95;5.13;;;13.40;99.90;;;;;;4971900;28;20089;-46
2022/05/15 06:46:45;;;;;;;22.88;5.15;;;13.50;99.90;;;;;;4972283;28;20082;-47
2022/05/15 06:49:11;;;;;;;21.70;5.60;;;13.60;99.90;;;;;;4972447;28;20491;-49
2022/05/15 06:51:37;;;;;;;20.58;5.20;;;13.70;99.90;;;;;;4972019;28;20085;-46
2022/05/15 06:54:03;;;;;;;17.25;5.10;;;13.80;99.90;;;;;;4954704;28;20061;-48
2022/05/15 06:59:13;;;;;;;;;;;13.90;99.90;;;;;;4972825;28;20066;-49
2022/05/15 07:01:38;;;;;;;21.95;5.32;;;13.90;99.90;;;;;;4971631;28;19918;-49
2022/05/15 07:04:04;;;;;;;19.95;5.10;;;14.00;99.90;;;;;;4954601;28;20035;-47
2022/05/15 07:06:30;;;;;;;15.82;5.18;;;14.10;99.90;;;;;;4954823;28;20043;-47
2022/05/15 07:08:57;;;;;;;19.05;4.47;;;14.20;99.90;;;;;;4971888;28;20402;-51
2022/05/15 07:11:22;;;;;;;16.05;4.65;;;14.40;99.90;;;;;;4972198;28;20039;-46
2022/05/15 07:13:48;;;;;;;14.75;4.47;;;14.40;99.90;;;;;;4964361;28;20410;-46
2022/05/15 07:16:14;;;;;;;14.00;3.88;;;14.50;99.90;;;;;;4964864;28;20418;-46
2022/05/15 07:18:41;;;;;;;18.90;4.35;;;14.50;99.90;;;;;;4964785;28;20049;-48
2022/05/15 07:21:07;;;;;;;18.13;5.07;;;14.70;99.90;;;;;;4965483;28;20110;-46
2022/05/15 07:23:33;;;;;;;20.00;3.85;;;14.70;99.90;;;;;;4963680;28;20038;-47
2022/05/15 07:26:00;;;;;;;18.15;4.47;;;14.80;99.90;;;;;;4964588;28;20045;-47
2022/05/15 07:28:25;;;;;;;14.95;3.88;;;14.90;99.90;;;;;;4964883;28;20050;-49
2022/05/15 07:30:52;;;;;;;14.85;3.65;;;14.90;99.90;;;;;;4963968;28;20474;-50
2022/05/15 07:33:22;;;;;;;17.48;4.00;;;15.20;99.90;;;;;;4963598;28;20041;-45
2022/05/15 07:35:48;;;;;;;19.23;4.72;;;15.10;99.90;;;;;;4963488;28;20054;-48
2022/05/15 07:38:14;;;;;;;19.52;3.90;;;15.20;99.90;;;;;;4960953;28;20493;-45
2022/05/15 07:40:41;;;;;;;15.75;4.45;;;15.30;99.90;;;;;;4963134;28;20434;-47
2022/05/15 07:43:09;;;;;;;18.90;4.03;;;15.40;99.90;;;;;;4962362;28;20046;-48
2022/05/15 07:45:35;;;;;;;15.82;4.10;;;15.60;99.90;;;;;;4961341;28;20043;-47
2022/05/15 07:48:01;;;;;;;17.38;4.22;;;15.70;99.90;;;;;;4963279;28;20423;-48
2022/05/15 07:50:27;;;;;;;18.75;4.55;;;15.70;99.90;;;;;;4963382;28;20053;-47
2022/05/15 07:52:53;;;;;;;14.57;3.90;;;15.80;99.90;;;;;;4961722;28;20045;-47
2022/05/15 07:55:19;;;;;;;17.02;3.45;;;15.90;99.90;;;;;;4945692;28;22798;-47
2022/05/15 07:57:44;;;;;;;17.45;3.72;;;15.90;99.90;;;;;;4959715;28;20047;-46
2022/05/15 08:00:13;;;;;;;14.10;3.88;;;16.00;99.90;;;;;;4964261;28;20521;-49
2022/05/15 08:02:41;;;;;;;13.73;3.75;;;16.30;99.90;;;;;;4966917;28;20031;-47
2022/05/15 08:08:03;;;;;;;17.27;3.88;;;16.30;99.90;;;;;;4965904;28;20105;-48
2022/05/15 08:10:35;;;;;;;13.02;3.50;;;16.40;99.90;;;;;;4964696;28;20078;-47
2022/05/15 08:13:01;;;;;;;14.68;3.83;;;16.50;99.90;;;;;;4964547;28;20134;-50
2022/05/15 08:15:28;;;;;;;17.92;4.40;;;16.60;99.90;;;;;;4963720;28;20050;-46
2022/05/15 08:17:54;;;;;;;15.82;3.85;;;16.70;99.90;;;;;;4965158;28;20118;-46
2022/05/15 08:25:49;;;;;;;17.25;3.45;;;17.00;99.90;;;;;;4956570;28;20105;-49
2022/05/15 08:28:16;;;;;;;15.48;4.03;;;17.10;99.90;;;;;;4952876;28;20418;-46
2022/05/15 08:30:42;;;;;;;14.77;3.22;;;17.10;99.90;;;;;;4967046;28;20162;-46
2022/05/15 08:33:10;;;;;;;17.58;4.00;;;17.20;99.90;;;;;;4955171;28;20086;-45
2022/05/15 08:35:35;;;;;;;16.70;3.88;;;17.30;99.90;;;;;;4967803;28;20039;-45
2022/05/15 08:38:01;;;;;;;16.42;3.50;;;17.40;99.90;;;;;;4967346;28;20470;-45
2022/05/15 08:40:34;;;;;;;16.80;3.95;;;17.50;99.90;;;;;;4969835;28;20018;-46
2022/05/15 08:43:03;;;;;;;15.13;3.50;;;17.70;99.90;;;;;;4967377;28;20097;-46
2022/05/15 08:45:37;;;;;;;15.00;3.55;;;17.70;99.90;;;;;;4952720;28;20470;-47
2022/05/15 08:48:05;;;;;;;16.35;3.85;;;17.90;99.90;;;;;;4968593;28;20038;-47
2022/05/15 08:50:41;;;;;;;17.42;3.72;;;17.80;99.90;;;;;;4966776;28;20073;-46
2022/05/15 08:53:14;;;;;;;18.13;3.83;;;18.00;99.90;;;;;;4968247;28;20054;-47
2022/05/15 08:55:54;;;;;;;16.92;3.70;;;18.10;99.90;;;;;;4966273;28;20070;-48
2022/05/15 08:58:36;;;;;;;18.95;3.90;;;18.30;99.90;;;;;;4967346;28;20093;-48
2022/05/15 09:01:05;;;;;;;15.88;3.63;;;18.40;99.90;;;;;;4967807;28;20479;-49
2022/05/15 09:03:35;;;;;;;16.75;3.75;;;18.60;99.90;;;;;;4970327;28;20053;-47
2022/05/15 09:06:10;;;;;;;17.25;3.85;;;18.80;99.90;;;;;;4967558;28;20334;-47
2022/05/15 09:09:01;;;;;;;15.75;3.67;;;19.10;99.90;;;;;;4967272;28;20049;-46
2022/05/15 09:11:48;;;;;;;17.60;3.40;;;19.20;99.90;;;;;;4966241;28;20125;-47
2022/05/15 09:14:41;;;;;;;17.77;3.72;;;19.30;99.90;;;;;;4967013;28;20081;-49
2022/05/15 09:17:41;;;;;;;12.82;3.45;;;19.50;99.90;;;;;;4969127;28;20243;-47
2022/05/15 09:20:13;;;;;;;15.30;3.50;;;19.80;99.90;;;;;;4903446;29;20031;-50
2022/05/15 09:22:46;;;;;;;20.65;3.78;;;19.80;99.90;;;;;;4951346;28;20042;-50
2022/05/15 09:25:21;;;;;;;17.73;3.50;;;20.10;99.90;;;;;;4948353;28;20047;-49
2022/05/15 09:28:08;;;;;;;15.00;3.33;;;20.20;99.90;;;;;;4963883;28;20101;-51
2022/05/15 09:30:38;;;;;;;13.60;3.22;;;20.50;99.90;;;;;;4962987;28;20042;-48
2022/05/15 09:33:05;;;;;;;14.25;3.47;;;20.60;99.90;;;;;;4942524;28;20044;-50
2022/05/15 09:35:38;;;;;;;13.40;3.55;;;20.50;99.90;;;;;;4967428;28;20050;-49
2022/05/15 09:38:29;;;;;;;14.73;3.58;;;20.80;99.90;;;;;;4970013;28;20086;-47
2022/05/15 09:44:34;;;;;;;16.45;3.88;;;21.10;99.90;;;;;;4943659;28;20039;-45
2022/05/15 09:47:11;;;;;;;15.93;3.97;;;21.10;99.90;;;;;;4971384;28;20046;-48
2022/05/15 09:49:37;;;;;;;16.48;3.63;;;21.00;99.90;;;;;;4972481;28;20391;-50
2022/05/15 09:52:11;;;;;;;14.15;4.32;;;20.90;99.90;;;;;;4971780;28;20082;-48
2022/05/15 09:54:38;;;;;;;;;;;20.90;99.90;;;;;;4972058;28;20038;-47
2022/05/15 09:57:19;;;;;;;20.52;3.53;;;21.00;99.50;;;;;;4954694;28;19922;-47
2022/05/15 10:00:11;;;;;;;12.88;3.53;;;21.00;99.50;;;;;;4970954;28;20114;-46
2022/05/15 10:02:40;;;;;;;15.48;3.63;;;21.20;99.30;;;;;;4965869;28;20282;-49
2022/05/15 10:05:29;;;;;;;17.02;3.58;;;21.40;99.90;;;;;;4972132;28;20092;-47
2022/05/15 10:08:00;;;;;;;14.88;3.50;;;21.40;98.80;;;;;;4971280;28;20116;-46
2022/05/15 10:10:58;;;;;;;12.32;2.85;;;21.20;98.70;;;;;;4972286;28;20119;-46
2022/05/15 10:13:52;;;;;;;16.98;3.70;;;21.40;99.10;;;;;;4971589;28;20050;-47
2022/05/15 10:16:18;;;;;;;15.40;3.33;;;21.40;97.80;;;;;;4972313;28;20035;-46
2022/05/15 10:19:08;;;;;;;16.60;3.55;;;21.40;98.40;;;;;;4972183;28;20043;-46
2022/05/15 10:21:42;;;;;;;19.63;3.83;;;21.60;98.30;;;;;;4971537;28;20118;-50
2022/05/15 10:24:18;;;;;;;15.88;3.40;;;21.80;98.50;;;;;;4970244;28;20067;-50
2022/05/15 10:26:53;;;;;;;18.60;3.60;;;21.70;97.30;;;;;;4953479;28;20050;-51
2022/05/15 10:29:46;;;;;;;14.15;3.00;;;21.70;98.40;;;;;;4972552;28;20037;-48
2022/05/15 10:32:21;;;;;;;15.23;3.70;;;21.80;97.60;;;;;;4932265;28;20047;-47
2022/05/15 10:34:47;;;;;;;18.08;3.67;;;22.00;97.80;;;;;;4971035;28;20126;-48
2022/05/15 10:37:18;;;;;;;13.77;3.60;;;21.90;97.20;;;;;;4972059;28;20126;-50
2022/05/15 10:39:56;;;;;;;13.20;3.05;;;22.10;97.40;;;;;;4953782;28;20105;-45
2022/05/15 10:42:25;;;;;;;13.70;3.10;;;22.30;97.60;;;;;;4954192;28;20045;-51
2022/05/15 10:44:59;;;;;;;16.00;3.63;;;22.30;95.90;;;;;;4971541;28;20093;-49
2022/05/15 10:47:43;;;;;;;15.82;3.40;;;22.50;96.70;;;;;;4972293;28;20038;-48
2022/05/15 10:50:31;;;;;;;16.98;3.67;;;22.60;95.90;;;;;;4953987;28;20046;-51
2022/05/15 10:59:45;;;;;;;17.50;3.17;;;22.70;93.70;;;;;;4971425;28;21532;-49
2022/05/15 11:02:29;;;;;;;18.70;3.78;;;22.80;94.10;;;;;;4952943;28;20039;-48
2022/05/15 11:05:11;;;;;;;15.50;3.58;;;22.90;94.60;;;;;;4971027;28;20170;-47
2022/05/15 11:08:01;;;;;;;19.17;3.60;;;23.10;94.70;;;;;;4971165;28;20046;-47
2022/05/15 11:10:41;;;;;;;15.10;3.63;;;23.10;93.80;;;;;;4971396;28;20046;-52
2022/05/15 11:13:25;;;;;;;13.43;3.10;;;23.00;94.20;;;;;;4967671;28;20045;-48
2022/05/15 11:15:59;;;;;;;12.82;2.78;;;23.30;93.30;;;;;;4970665;28;20490;-52
2022/05/15 11:18:35;;;;;;;16.08;3.38;;;23.50;92.70;;;;;;4964353;28;20390;-50
2022/05/15 11:21:09;;;;;;;15.60;3.63;;;23.60;92.30;;;;;;4964048;28;20031;-46
2022/05/15 11:23:36;;;;;;;;;;;23.60;92.30;;;;;;4965527;28;20035;-47
2022/05/15 11:26:14;;;;;;;13.02;2.80;;;23.50;92.10;;;;;;4966935;28;19968;-49
2022/05/15 11:28:47;;;;;;;12.40;3.38;;;23.90;91.90;;;;;;4966878;28;20066;-49
2022/05/15 11:31:18;;;;;;;12.95;3.13;;;24.00;91.20;;;;;;4950444;28;20039;-49
2022/05/15 11:33:58;;;;;;;15.32;3.50;;;23.80;90.50;;;;;;4967148;28;20462;-51
2022/05/15 11:36:27;;;;;;;15.52;3.05;;;23.90;91.90;;;;;;4966670;28;20038;-50
2022/05/15 11:39:19;;;;;;;12.75;3.17;;;23.80;90.80;;;;;;4969198;28;20042;-50
2022/05/15 11:41:44;;;;;;;13.32;3.30;;;24.00;90.70;;;;;;4970227;28;20049;-49
2022/05/15 11:44:20;;;;;;;14.18;3.33;;;24.00;90.60;;;;;;4970880;28;20035;-49
2022/05/15 11:46:46;;;;;;;12.32;3.20;;;24.40;90.30;;;;;;4970613;28;20479;-49
2022/05/15 11:49:23;;;;;;;17.60;3.60;;;24.50;90.40;;;;;;4971204;28;20133;-44
2022/05/15 11:52:04;;;;;;;16.48;3.47;;;24.50;88.50;;;;;;4965075;28;20398;-47
2022/05/15 11:54:35;;;;;;;17.38;3.10;;;24.60;89.10;;;;;;4965145;28;20793;-45
2022/05/15 11:57:03;;;;;;;13.88;3.08;;;24.90;89.90;;;;;;4967762;28;20031;-48
2022/05/15 11:59:35;;;;;;;11.65;2.83;;;25.00;87.00;;;;;;4969935;28;20466;-45
2022/05/15 12:02:28;;;;;;;14.10;3.15;;;25.00;87.30;;;;;;4969278;28;20031;-48
2022/05/15 12:05:00;;;;;;;13.48;3.17;;;25.10;86.70;;;;;;4965986;28;20493;-49
2022/05/15 12:07:47;;;;;;;15.67;3.40;;;25.40;86.80;;;;;;4965578;28;20046;-49
2022/05/15 12:10:35;;;;;;;15.05;2.95;;;25.40;86.00;;;;;;4965438;28;20095;-52
2022/05/15 12:13:06;;;;;;;14.85;3.58;;;25.40;85.10;;;;;;4963329;28;20050;-49
2022/05/15 12:15:42;;;;;;;12.68;3.03;;;25.60;83.40;;;;;;4962685;28;20046;-51
2022/05/15 12:18:32;;;;;;;11.65;3.25;;;25.40;83.90;;;;;;4965808;28;20041;-51
2022/05/15 12:20:59;;;;;;;12.50;3.08;;;25.80;85.20;;;;;;4967456;28;20082;-48
2022/05/15 12:23:32;;;;;;;14.02;3.00;;;25.80;80.70;;;;;;4970637;28;20143;-47
2022/05/15 12:25:58;;;;;;;;;;;25.90;80.00;;;;;;4969182;28;20041;-49
2022/05/15 12:31:17;;;;;;;11.55;3.15;;;26.20;81.30;;;;;;4968973;28;20137;-47
2022/05/15 12:33:45;;;;;;;14.98;3.10;;;26.30;79.20;;;;;;4969059;28;20165;-47
2022/05/15 12:36:19;;;;;;;10.50;3.20;;;26.20;79.30;;;;;;4969478;28;20050;-48
2022/05/15 12:38:54;;;;;;;16.25;3.25;;;26.30;80.70;;;;;;4968305;28;20043;-48
2022/05/15 12:41:42;;;;;;;16.08;3.20;;;26.40;79.70;;;;;;4969181;28;20391;-49
2022/05/15 12:44:11;;;;;;;12.20;3.08;;;26.80;79.10;;;;;;4969296;28;20043;-47
2022/05/15 12:46:54;;;;;;;12.95;3.70;;;26.90;77.20;;;;;;4968039;28;20038;-48
2022/05/15 12:49:56;;;;;;;10.18;2.80;;;26.90;77.90;;;;;;4968425;28;20046;-45
2022/05/15 12:52:33;;;;;;;12.77;3.08;;;26.80;74.20;;;;;;4954573;28;20579;-49
2022/05/15 12:55:31;;;;;;;13.15;2.65;;;27.00;74.90;;;;;;4969470;28;20050;-49
2022/05/15 12:57:59;;;;;;;11.43;2.72;;;27.10;73.70;;;;;;4969654;28;20041;-46
2022/05/15 13:00:35;;;;;;;12.32;3.28;;;27.20;74.20;;;;;;4970294;28;20042;-47
2022/05/15 13:03:05;;;;;;;11.27;3.00;;;27.50;73.30;;;;;;4970054;28;20033;-48
2022/05/15 13:05:35;;;;;;;14.27;3.10;;;27.40;74.70;;;;;;4970600;28;20039;-46
2022/05/15 13:08:03;;;;;;;13.23;3.33;;;27.80;72.90;;;;;;4968649;28;20049;-44
2022/05/15 13:10:31;;;;;;;13.82;3.00;;;27.70;71.30;;;;;;4968177;28;20472;-47
2022/05/15 13:13:18;;;;;;;12.20;3.53;;;27.80;70.90;;;;;;4969759;28;20062;-46
2022/05/15 13:15:50;;;;;;;15.98;2.95;;;27.80;71.50;;;;;;4967913;28;20047;-45
2022/05/15 13:18:17;;;;;;;10.70;3.03;;;28.20;70.70;;;;;;4968415;28;20039;-47
2022/05/15 13:20:52;;;;;;;11.15;3.33;;;28.10;68.80;;;;;;4969616;28;20128;-45